Time;durP1;ratioP1;P1;durP2;ratioP2;P2;SDS_P1;SDS_P2;PMS_P1;PMS_P2;Temp;Humidity;BMP_temperature;BMP_pressure;BME280_temperature;BME280_humidity;BME280_pressure;Samples;Min_cycle;Max_cycle;Signal;HPM_P1;HPM_P2
2022/10/09 00:01:05;;;;;;;0.38;0.28;;;;;;;;;;4904918;29;20044;-85
2022/10/09 00:03:32;;;;;;;0.20;0.10;;;;;;;;;;4906030;29;20078;-86
2022/10/09 00:05:58;;;;;;;0.20;0.10;;;;;;;;;;4906433;29;20058;-84
2022/10/09 00:08:24;;;;;;;0.20;0.10;;;;;;;;;;4891093;29;20052;-85
2022/10/09 00:10:50;;;;;;;0.20;0.10;;;;;;;;;;4908047;29;20051;-88
2022/10/09 00:13:16;;;;;;;0.20;0.10;;;;;;;;;;4893748;29;20043;-82
2022/10/09 00:15:43;;;;;;;0.20;0.10;;;;;;;;;;4904263;29;20130;-85
2022/10/09 00:18:10;;;;;;;0.20;0.10;;;;;;;;;;4892114;29;20048;-84
2022/10/09 00:20:37;;;;;;;0.20;0.10;;;;;;;;;;4878931;29;20050;-82
2022/10/09 00:23:03;;;;;;;0.20;0.10;;;;;;;;;;4906790;29;20044;-86
2022/10/09 00:25:29;;;;;;;0.20;0.10;;;;;;;;;;4910728;29;20170;-85
2022/10/09 00:27:59;;;;;;;0.20;0.10;;;;;;;;;;4892690;29;20099;-85
2022/10/09 00:30:25;;;;;;;0.20;0.15;;;;;;;;;;4915698;29;20047;-88
2022/10/09 00:32:51;;;;;;;0.20;0.10;;;;;;;;;;4902605;29;20047;-85
2022/10/09 00:35:18;;;;;;;0.20;0.10;;;;;;;;;;4900392;29;20072;-85
2022/10/09 00:37:44;;;;;;;0.20;0.10;;;;;;;;;;4921617;29;20410;-88
2022/10/09 00:40:10;;;;;;;0.22;0.15;;;;;;;;;;4921276;29;20040;-87
2022/10/09 00:42:36;;;;;;;0.20;0.10;;;;;;;;;;4923356;29;20043;-86
2022/10/09 00:45:03;;;;;;;0.38;0.30;;;;;;;;;;4903551;29;20078;-86
2022/10/09 00:47:31;;;;;;;0.20;0.10;;;;;;;;;;4916770;29;21023;-85
2022/10/09 00:49:59;;;;;;;0.20;0.10;;;;;;;;;;4917060;29;20502;-85
2022/10/09 00:52:26;;;;;;;0.20;0.10;;;;;;;;;;4918432;29;20054;-86
2022/10/09 00:54:53;;;;;;;0.20;0.10;;;;;;;;;;4922746;29;20047;-85
2022/10/09 00:57:19;;;;;;;0.20;0.10;;;;;;;;;;4913216;29;20059;-85
2022/10/09 00:59:45;;;;;;;1.33;0.15;;;;;;;;;;4933878;28;20051;-86
2022/10/09 01:02:11;;;;;;;0.20;0.10;;;;;;;;;;4900727;29;20043;-84
2022/10/09 01:04:37;;;;;;;0.20;0.10;;;;;;;;;;4879541;29;20048;-85
2022/10/09 01:07:03;;;;;;;0.20;0.10;;;;;;;;;;4914867;29;20597;-85
2022/10/09 01:09:42;;;;;;;0.20;0.10;;;;;;;;;;4915131;29;20522;-86
2022/10/09 01:12:17;;;;;;;0.20;0.10;;;;;;;;;;4922405;29;20057;-88
2022/10/09 01:14:46;;;;;;;0.20;0.10;;;;;;;;;;4913122;29;20047;-85
2022/10/09 01:17:12;;;;;;;0.20;0.10;;;;;;;;;;4914170;28;20087;-86
2022/10/09 01:19:58;;;;;;;0.20;0.10;;;;;;;;;;4916606;29;20036;-85
2022/10/09 01:22:32;;;;;;;0.20;0.20;;;;;;;;;;4924321;29;20123;-85
2022/10/09 01:25:05;;;;;;;0.20;0.10;;;;;;;;;;4920288;29;20146;-86
2022/10/09 01:27:32;;;;;;;0.20;0.10;;;;;;;;;;4925130;29;20103;-86
2022/10/09 01:30:02;;;;;;;0.20;0.10;;;;;;;;;;4921193;29;20082;-85
2022/10/09 01:32:39;;;;;;;0.20;0.10;;;;;;;;;;4922222;29;20043;-86
2022/10/09 01:35:06;;;;;;;0.20;0.10;;;;;;;;;;4915401;29;20052;-84
2022/10/09 01:37:33;;;;;;;0.20;0.10;;;;;;;;;;4898104;29;20048;-86
2022/10/09 01:39:59;;;;;;;0.20;0.10;;;;;;;;;;4917754;29;20782;-85
2022/10/09 01:42:26;;;;;;;0.20;0.10;;;;;;;;;;4915954;29;20048;-85
2022/10/09 01:44:52;;;;;;;0.20;0.10;;;;;;;;;;4920679;29;20039;-86
2022/10/09 01:47:20;;;;;;;0.20;0.10;;;;;;;;;;4906865;29;20032;-85
2022/10/09 01:49:51;;;;;;;0.20;0.10;;;;;;;;;;4918708;29;20115;-86
2022/10/09 01:52:17;;;;;;;0.20;0.10;;;;;;;;;;4919129;29;20048;-84
2022/10/09 01:54:51;;;;;;;0.32;0.32;;;;;;;;;;4913963;29;20375;-88
2022/10/09 01:57:21;;;;;;;0.20;0.10;;;;;;;;;;4921812;29;20047;-85
2022/10/09 01:59:48;;;;;;;0.20;0.10;;;;;;;;;;4899078;29;20047;-85
2022/10/09 02:02:15;;;;;;;0.20;0.10;;;;;;;;;;4920191;29;20138;-85
2022/10/09 02:04:42;;;;;;;0.20;0.10;;;;;;;;;;4914699;29;20357;-85
2022/10/09 02:07:09;;;;;;;0.20;0.20;;;;;;;;;;4913346;29;20513;-85
2022/10/09 02:09:36;;;;;;;4.63;0.25;;;;;;;;;;4918249;29;20039;-85
2022/10/09 02:12:06;;;;;;;0.20;0.10;;;;;;;;;;4919616;29;20039;-84
2022/10/09 02:14:33;;;;;;;0.20;0.10;;;;;;;;;;4898376;29;20055;-84
2022/10/09 02:17:09;;;;;;;0.20;0.10;;;;;;;;;;4914165;29;20039;-84
2022/10/09 02:19:50;;;;;;;0.20;0.10;;;;;;;;;;4914048;29;22435;-84
2022/10/09 02:22:21;;;;;;;0.20;0.10;;;;;;;;;;4915411;29;20048;-85
2022/10/09 02:24:47;;;;;;;0.20;0.10;;;;;;;;;;4906247;29;20065;-87
2022/10/09 02:27:14;;;;;;;0.32;0.32;;;;;;;;;;4901808;29;20417;-85
2022/10/09 02:29:41;;;;;;;0.20;0.10;;;;;;;;;;4917409;29;20055;-85
2022/10/09 02:32:07;;;;;;;0.20;0.10;;;;;;;;;;4924103;29;20044;-84
2022/10/09 02:34:33;;;;;;;0.20;0.10;;;;;;;;;;4921884;29;20134;-85
2022/10/09 02:36:59;;;;;;;0.20;0.10;;;;;;;;;;4895672;29;21420;-84
2022/10/09 02:39:25;;;;;;;0.45;0.45;;;;;;;;;;4902721;29;20048;-85
2022/10/09 02:41:51;;;;;;;0.20;0.10;;;;;;;;;;4900926;29;20554;-86
2022/10/09 02:44:17;;;;;;;0.20;0.10;;;;;;;;;;4920757;29;20044;-85
2022/10/09 02:46:43;;;;;;;0.20;0.10;;;;;;;;;;4916422;29;20047;-86
2022/10/09 02:49:10;;;;;;;0.20;0.10;;;;;;;;;;4902823;29;20136;-86
2022/10/09 02:51:36;;;;;;;0.20;0.10;;;;;;;;;;4901823;29;20550;-86
2022/10/09 02:54:02;;;;;;;0.20;0.10;;;;;;;;;;4916488;29;21051;-86
2022/10/09 02:56:29;;;;;;;0.20;0.10;;;;;;;;;;4905513;29;20483;-86
2022/10/09 02:58:55;;;;;;;0.20;0.10;;;;;;;;;;4916921;29;20044;-85
2022/10/09 03:01:21;;;;;;;0.20;0.10;;;;;;;;;;4916488;29;20092;-85
2022/10/09 03:03:47;;;;;;;0.20;0.10;;;;;;;;;;4919624;29;20050;-86
2022/10/09 03:06:14;;;;;;;0.20;0.10;;;;;;;;;;4934520;28;20111;-87
2022/10/09 03:08:42;;;;;;;0.20;0.20;;;;;;;;;;4920828;29;20570;-85
2022/10/09 03:11:08;;;;;;;0.20;0.10;;;;;;;;;;4918042;29;20118;-85
2022/10/09 03:13:34;;;;;;;0.20;0.10;;;;;;;;;;4916007;29;20044;-85
2022/10/09 03:16:08;;;;;;;0.40;0.40;;;;;;;;;;4916208;29;20052;-85
2022/10/09 03:18:34;;;;;;;0.20;0.15;;;;;;;;;;4917828;29;20127;-85
2022/10/09 03:21:00;;;;;;;0.20;0.10;;;;;;;;;;4918965;29;20047;-86
2022/10/09 03:23:26;;;;;;;0.20;0.10;;;;;;;;;;4916358;29;20050;-85
2022/10/09 03:25:59;;;;;;;0.35;0.20;;;;;;;;;;4907685;29;20058;-85
2022/10/09 03:28:25;;;;;;;0.20;0.10;;;;;;;;;;4914609;29;20048;-85
2022/10/09 03:30:52;;;;;;;0.20;0.10;;;;;;;;;;4920844;29;20130;-85
2022/10/09 03:33:19;;;;;;;0.20;0.10;;;;;;;;;;4905081;29;20051;-85
2022/10/09 03:35:45;;;;;;;0.20;0.20;;;;;;;;;;4911617;29;20098;-86
2022/10/09 03:38:12;;;;;;;0.20;0.10;;;;;;;;;;4924289;29;20050;-85
2022/10/09 03:40:38;;;;;;;0.20;0.10;;;;;;;;;;4920295;29;20486;-85
2022/10/09 03:43:04;;;;;;;0.50;0.38;;;;;;;;;;4917687;29;20123;-86
2022/10/09 03:45:30;;;;;;;0.28;0.13;;;;;;;;;;4905259;29;20395;-85
2022/10/09 03:47:57;;;;;;;0.20;0.10;;;;;;;;;;4919543;29;20050;-85
2022/10/09 03:50:23;;;;;;;0.20;0.10;;;;;;;;;;4900374;29;20035;-85
2022/10/09 03:52:49;;;;;;;0.20;0.10;;;;;;;;;;4899540;29;20114;-85
2022/10/09 03:55:15;;;;;;;0.20;0.10;;;;;;;;;;4900214;29;20048;-86
2022/10/09 03:57:41;;;;;;;0.20;0.10;;;;;;;;;;4899369;29;20048;-85
2022/10/09 04:00:07;;;;;;;0.20;0.10;;;;;;;;;;4897888;29;20099;-86
2022/10/09 04:02:34;;;;;;;0.20;0.10;;;;;;;;;;4917570;29;20110;-85
2022/10/09 04:05:00;;;;;;;0.20;0.10;;;;;;;;;;4902399;29;20148;-84
2022/10/09 04:07:26;;;;;;;0.20;0.10;;;;;;;;;;4901265;29;20152;-84
2022/10/09 04:09:52;;;;;;;0.20;0.10;;;;;;;;;;4920446;29;20075;-86
2022/10/09 04:12:18;;;;;;;0.20;0.10;;;;;;;;;;4918466;29;20054;-87
2022/10/09 04:14:44;;;;;;;0.20;0.10;;;;;;;;;;4896619;29;20553;-85
2022/10/09 04:17:10;;;;;;;0.20;0.10;;;;;;;;;;4913470;29;20067;-85
2022/10/09 04:19:36;;;;;;;0.20;0.10;;;;;;;;;;4900506;29;20086;-84
2022/10/09 04:22:03;;;;;;;0.20;0.10;;;;;;;;;;4913081;29;20164;-85
2022/10/09 04:24:29;;;;;;;0.20;0.10;;;;;;;;;;4913200;29;20417;-85
2022/10/09 04:26:55;;;;;;;0.20;0.10;;;;;;;;;;4914398;29;20043;-84
2022/10/09 04:29:22;;;;;;;0.22;0.13;;;;;;;;;;4904577;29;20358;-85
2022/10/09 04:31:48;;;;;;;0.20;0.15;;;;;;;;;;4900679;29;20071;-84
2022/10/09 04:34:14;;;;;;;0.20;0.10;;;;;;;;;;4914567;29;20039;-85
2022/10/09 04:36:40;;;;;;;0.20;0.10;;;;;;;;;;4896076;29;20040;-85
2022/10/09 04:39:06;;;;;;;0.20;0.20;;;;;;;;;;4917301;29;20077;-86
2022/10/09 04:41:32;;;;;;;0.25;0.25;;;;;;;;;;4918835;29;20048;-85
2022/10/09 04:43:58;;;;;;;0.20;0.10;;;;;;;;;;4914027;29;20044;-85
2022/10/09 04:46:24;;;;;;;0.20;0.10;;;;;;;;;;4909009;29;20036;-85
2022/10/09 04:48:50;;;;;;;0.20;0.10;;;;;;;;;;4891966;29;20039;-85
2022/10/09 04:51:17;;;;;;;0.20;0.10;;;;;;;;;;4897509;29;20154;-85
2022/10/09 04:53:43;;;;;;;0.20;0.10;;;;;;;;;;4918397;29;20051;-84
2022/10/09 04:56:12;;;;;;;0.20;0.10;;;;;;;;;;4896197;29;20080;-85
2022/10/09 04:58:40;;;;;;;0.20;0.10;;;;;;;;;;4936083;23;20055;-87
2022/10/09 05:01:08;;;;;;;0.20;0.10;;;;;;;;;;4925792;28;20476;-87
2022/10/09 05:03:35;;;;;;;0.20;0.10;;;;;;;;;;4932393;28;20521;-85
2022/10/09 05:06:05;;;;;;;0.20;0.10;;;;;;;;;;4933799;28;20043;-86
2022/10/09 05:08:31;;;;;;;0.20;0.10;;;;;;;;;;4933929;28;20556;-87
2022/10/09 05:11:04;;;;;;;0.20;0.10;;;;;;;;;;4928600;28;20435;-86
2022/10/09 05:13:37;;;;;;;0.20;0.10;;;;;;;;;;4931829;28;20043;-87
2022/10/09 05:16:04;;;;;;;0.20;0.10;;;;;;;;;;4917454;28;20051;-85
2022/10/09 05:18:30;;;;;;;0.20;0.10;;;;;;;;;;4932204;28;20043;-86
2022/10/09 05:20:57;;;;;;;0.30;0.20;;;;;;;;;;4914918;28;20512;-84
2022/10/09 05:23:23;;;;;;;0.20;0.10;;;;;;;;;;4951777;28;20055;-86
2022/10/09 05:26:00;;;;;;;0.20;0.10;;;;;;;;;;4934234;28;20417;-86
2022/10/09 05:28:26;;;;;;;0.20;0.10;;;;;;;;;;4930741;28;20596;-83
2022/10/09 05:30:52;;;;;;;0.20;0.10;;;;;;;;;;4937795;28;20054;-85
2022/10/09 05:33:18;;;;;;;0.20;0.10;;;;;;;;;;4920834;29;20081;-85
2022/10/09 05:35:51;;;;;;;0.20;0.10;;;;;;;;;;4936382;28;20437;-85
2022/10/09 05:38:21;;;;;;;0.20;0.10;;;;;;;;;;4929692;28;20049;-85
2022/10/09 05:41:00;;;;;;;0.20;0.10;;;;;;;;;;4918766;28;20125;-86
2022/10/09 05:43:27;;;;;;;0.20;0.10;;;;;;;;;;4937747;28;20051;-86
2022/10/09 05:45:53;;;;;;;0.30;0.20;;;;;;;;;;4930832;28;20046;-87
2022/10/09 05:48:20;;;;;;;0.20;0.10;;;;;;;;;;4913211;29;20051;-86
2022/10/09 05:50:47;;;;;;;0.20;0.10;;;;;;;;;;4928022;28;20047;-85
2022/10/09 05:53:13;;;;;;;0.20;0.10;;;;;;;;;;4910229;28;20035;-86
2022/10/09 05:55:41;;;;;;;0.20;0.10;;;;;;;;;;4926243;28;20115;-85
2022/10/09 05:58:10;;;;;;;0.20;0.10;;;;;;;;;;4912605;29;20057;-86
2022/10/09 06:00:36;;;;;;;0.20;0.10;;;;;;;;;;4928920;28;21980;-86
2022/10/09 06:03:02;;;;;;;0.20;0.20;;;;;;;;;;4897971;28;20039;-83
2022/10/09 06:05:28;;;;;;;0.20;0.10;;;;;;;;;;4925817;28;20047;-86
2022/10/09 06:07:55;;;;;;;0.20;0.10;;;;;;;;;;4932089;28;20050;-87
2022/10/09 06:10:21;;;;;;;0.20;0.10;;;;;;;;;;4913203;28;20505;-86
2022/10/09 06:12:47;;;;;;;0.20;0.13;;;;;;;;;;4918248;28;20295;-86
2022/10/09 06:15:13;;;;;;;0.20;0.10;;;;;;;;;;4921747;28;20098;-86
2022/10/09 06:17:39;;;;;;;0.30;0.30;;;;;;;;;;4940348;28;20039;-86
2022/10/09 06:20:05;;;;;;;0.20;0.10;;;;;;;;;;4932495;28;20102;-85
2022/10/09 06:22:31;;;;;;;0.30;0.20;;;;;;;;;;4924728;28;20453;-86
2022/10/09 06:24:57;;;;;;;0.20;0.10;;;;;;;;;;4906980;29;20564;-87
2022/10/09 06:27:23;;;;;;;0.20;0.10;;;;;;;;;;4938324;28;20743;-85
2022/10/09 06:29:49;;;;;;;0.20;0.10;;;;;;;;;;4919466;28;20169;-86
2022/10/09 06:32:15;;;;;;;0.20;0.10;;;;;;;;;;4916962;28;20154;-87
2022/10/09 06:34:41;;;;;;;0.38;0.38;;;;;;;;;;4921989;28;20439;-86
2022/10/09 06:37:07;;;;;;;0.20;0.10;;;;;;;;;;4936003;28;20066;-87
2022/10/09 06:39:33;;;;;;;0.20;0.10;;;;;;;;;;4905531;28;21885;-86
2022/10/09 06:41:59;;;;;;;0.20;0.10;;;;;;;;;;4926310;29;20039;-86
2022/10/09 06:44:25;;;;;;;0.20;0.10;;;;;;;;;;4944331;28;20051;-85
2022/10/09 06:46:52;;;;;;;0.20;0.20;;;;;;;;;;4920632;28;20530;-86
2022/10/09 06:49:20;;;;;;;0.20;0.10;;;;;;;;;;4937225;28;20086;-85
2022/10/09 06:51:47;;;;;;;0.20;0.10;;;;;;;;;;4919915;29;20070;-87
2022/10/09 06:54:16;;;;;;;0.20;0.10;;;;;;;;;;4923583;29;20039;-84
2022/10/09 06:56:42;;;;;;;0.20;0.10;;;;;;;;;;4922194;28;20051;-86
2022/10/09 06:59:09;;;;;;;0.20;0.10;;;;;;;;;;4921759;29;20043;-84
2022/10/09 07:01:38;;;;;;;0.20;0.10;;;;;;;;;;4917836;29;20055;-87
2022/10/09 07:04:06;;;;;;;0.20;0.10;;;;;;;;;;4921401;29;20043;-85
2022/10/09 07:06:33;;;;;;;0.20;0.10;;;;;;;;;;4919533;28;20997;-87
2022/10/09 07:09:01;;;;;;;0.20;0.10;;;;;;;;;;4938429;28;20063;-84
2022/10/09 07:11:29;;;;;;;0.20;0.10;;;;;;;;;;4950152;28;20055;-87
2022/10/09 07:13:59;;;;;;;0.20;0.10;;;;;;;;;;4953800;28;20051;-86
2022/10/09 07:16:30;;;;;;;0.20;0.10;;;;;;;;;;4953627;28;20127;-85
2022/10/09 07:18:56;;;;;;;0.20;0.10;;;;;;;;;;4940154;28;20437;-85
2022/10/09 07:21:23;;;;;;;0.20;0.10;;;;;;;;;;4941231;28;20186;-86
2022/10/09 07:23:49;;;;;;;0.20;0.10;;;;;;;;;;4943724;28;20067;-87
2022/10/09 07:26:20;;;;;;;0.20;0.10;;;;;;;;;;4921925;28;20615;-84
2022/10/09 07:28:47;;;;;;;0.20;0.10;;;;;;;;;;4942606;28;20035;-84
2022/10/09 07:31:13;;;;;;;0.20;0.10;;;;;;;;;;4938072;28;20162;-86
2022/10/09 07:33:40;;;;;;;0.20;0.10;;;;;;;;;;4921020;29;20049;-86
2022/10/09 07:36:07;;;;;;;0.20;0.10;;;;;;;;;;4918873;29;20073;-87
2022/10/09 07:38:33;;;;;;;0.20;0.10;;;;;;;;;;4925226;28;20047;-84
2022/10/09 07:41:01;;;;;;;0.20;0.10;;;;;;;;;;4921079;28;20054;-86
2022/10/09 07:43:27;;;;;;;0.32;0.20;;;;;;;;;;4936179;28;20046;-86
2022/10/09 07:45:57;;;;;;;0.20;0.10;;;;;;;;;;4939217;28;20031;-86
2022/10/09 07:48:52;;;;;;;0.20;0.10;;;;;;;;;;4944820;28;20074;-86
2022/10/09 07:51:25;;;;;;;0.20;0.10;;;;;;;;;;4925370;29;20243;-86
2022/10/09 07:54:21;;;;;;;0.20;0.10;;;;;;;;;;4934170;28;20054;-86
2022/10/09 07:56:47;;;;;;;0.20;0.10;;;;;;;;;;4933500;28;20141;-85
2022/10/09 07:59:18;;;;;;;0.20;0.10;;;;;;;;;;4936259;28;20098;-86
2022/10/09 08:02:02;;;;;;;0.20;0.20;;;;;;;;;;4926240;28;20126;-84
2022/10/09 08:04:44;;;;;;;0.20;0.10;;;;;;;;;;4933075;28;20099;-85
2022/10/09 08:07:31;;;;;;;0.20;0.20;;;;;;;;;;4932803;28;20123;-83
2022/10/09 08:10:02;;;;;;;0.20;0.10;;;;;;;;;;4938643;28;20510;-85
2022/10/09 08:12:37;;;;;;;0.20;0.17;;;;;;;;;;4920184;28;20761;-84
2022/10/09 08:15:21;;;;;;;0.20;0.10;;;;;;;;;;4918931;28;20047;-85
2022/10/09 08:17:58;;;;;;;0.20;0.10;;;;;;;;;;4920871;28;21632;-84
2022/10/09 08:20:24;;;;;;;0.20;0.10;;;;;;;;;;4920671;29;20066;-86
2022/10/09 08:23:09;;;;;;;0.20;0.10;;;;;;;;;;4931550;28;20060;-84
2022/10/09 08:25:35;;;;;;;0.20;0.10;;;;;;;;;;4952162;28;20106;-85
2022/10/09 08:28:11;;;;;;;0.20;0.10;;;;;;;;;;4931181;28;20054;-85
2022/10/09 08:30:37;;;;;;;0.20;0.10;;;;;;;;;;4923914;28;20031;-85
2022/10/09 08:33:03;;;;;;;0.20;0.10;;;;;;;;;;4921330;28;20039;-84
2022/10/09 08:35:38;;;;;;;0.20;0.10;;;;;;;;;;4941823;28;20063;-86
2022/10/09 08:38:27;;;;;;;0.20;0.10;;;;;;;;;;4926062;28;20147;-87
2022/10/09 08:41:12;;;;;;;0.20;0.10;;;;;;;;;;4921455;28;20050;-84
2022/10/09 08:43:44;;;;;;;0.20;0.20;;;;;;;;;;4937016;28;20114;-86
2022/10/09 08:46:37;;;;;;;0.20;0.10;;;;;;;;;;4935828;28;20734;-86
2022/10/09 08:52:18;;;;;;;0.20;0.10;;;;;;;;;;4938182;28;20061;-86
2022/10/09 08:55:01;;;;;;;0.20;0.10;;;;;;;;;;4932801;28;20154;-84
2022/10/09 08:57:36;;;;;;;0.20;0.10;;;;;;;;;;4924896;28;20066;-82
2022/10/09 09:00:16;;;;;;;0.20;0.10;;;;;;;;;;4937301;28;20054;-84
2022/10/09 09:03:05;;;;;;;0.20;0.10;;;;;;;;;;4923879;28;20079;-85
2022/10/09 09:05:54;;;;;;;0.20;0.10;;;;;;;;;;4920275;28;20557;-86
2022/10/09 09:08:51;;;;;;;;;;;;;;;;;;;;;
2022/10/09 09:11:43;;;;;;;0.20;0.10;;;;;;;;;;4945877;28;20047;-86
2022/10/09 09:17:28;;;;;;;0.20;0.10;;;;;;;;;;4938535;28;20047;-85
2022/10/09 09:20:00;;;;;;;0.20;0.10;;;;;;;;;;4937231;28;20676;-85
2022/10/09 09:22:37;;;;;;;0.20;0.10;;;;;;;;;;4930832;28;20047;-85
2022/10/09 09:25:29;;;;;;;0.82;0.55;;;;;;;;;;4919862;28;22057;-84
2022/10/09 09:28:01;;;;;;;0.20;0.10;;;;;;;;;;4923600;28;20035;-87
2022/10/09 09:30:49;;;;;;;0.20;0.10;;;;;;;;;;4940504;28;20058;-86
2022/10/09 09:33:24;;;;;;;0.20;0.10;;;;;;;;;;4930150;28;20039;-86
2022/10/09 09:36:09;;;;;;;0.20;0.10;;;;;;;;;;4955187;28;20051;-85
2022/10/09 09:38:37;;;;;;;0.20;0.10;;;;;;;;;;4923707;28;20047;-87
2022/10/09 09:41:19;;;;;;;0.20;0.10;;;;;;;;;;4931227;28;20046;-85
2022/10/09 09:43:49;;;;;;;0.20;0.10;;;;;;;;;;4946418;28;20039;-85
2022/10/09 09:46:40;;;;;;;0.20;0.10;;;;;;;;;;4926220;28;20051;-86
2022/10/09 09:49:48;;;;;;;0.20;0.10;;;;;;;;;;4992657;23;20070;-84
2022/10/09 09:52:59;;;;;;;0.20;0.10;;;;;;;;;;4943973;28;20059;-85
2022/10/09 09:55:27;;;;;;;0.20;0.10;;;;;;;;;;4940882;28;20048;-86
2022/10/09 09:58:11;;;;;;;0.20;0.10;;;;;;;;;;4910285;29;20055;-87
2022/10/09 10:00:38;;;;;;;0.20;0.10;;;;;;;;;;4909773;29;20729;-86
2022/10/09 10:03:17;;;;;;;0.20;0.10;;;;;;;;;;4893130;29;20074;-88
2022/10/09 10:05:46;;;;;;;0.20;0.10;;;;;;;;;;4914279;29;20067;-88
2022/10/09 10:08:52;;;;;;;0.20;0.10;;;;;;;;;;4917471;29;20074;-87
2022/10/09 10:11:19;;;;;;;0.20;0.10;;;;;;;;;;4928804;29;20051;-85
2022/10/09 10:13:48;;;;;;;0.20;0.10;;;;;;;;;;4891762;29;20047;-84
2022/10/09 10:16:28;;;;;;;0.20;0.10;;;;;;;;;;4917093;29;20059;-87
2022/10/09 10:19:04;;;;;;;0.20;0.10;;;;;;;;;;4909826;29;20058;-87
2022/10/09 10:21:40;;;;;;;0.20;0.10;;;;;;;;;;4927628;29;20046;-84
2022/10/09 10:24:13;;;;;;;0.20;0.10;;;;;;;;;;4920376;29;20586;-86
2022/10/09 10:26:42;;;;;;;0.20;0.10;;;;;;;;;;4919435;29;20038;-85
2022/10/09 10:29:27;;;;;;;0.20;0.10;;;;;;;;;;4920123;29;20044;-83
2022/10/09 10:32:12;;;;;;;0.20;0.10;;;;;;;;;;4919937;29;20087;-84
2022/10/09 10:34:41;;;;;;;0.20;0.10;;;;;;;;;;4905056;29;20693;-86
2022/10/09 10:37:15;;;;;;;0.20;0.10;;;;;;;;;;4921183;29;20529;-85
2022/10/09 10:39:57;;;;;;;0.20;0.10;;;;;;;;;;4918593;29;20106;-86
2022/10/09 10:42:36;;;;;;;0.20;0.10;;;;;;;;;;4920810;29;20047;-86
2022/10/09 10:45:23;;;;;;;0.20;0.10;;;;;;;;;;4920581;29;20043;-88
2022/10/09 10:47:54;;;;;;;0.20;0.10;;;;;;;;;;4921378;29;20066;-86
2022/10/09 10:50:37;;;;;;;0.20;0.10;;;;;;;;;;4907988;29;20039;-87
2022/10/09 10:53:18;;;;;;;0.20;0.10;;;;;;;;;;4920806;29;20039;-86
2022/10/09 10:55:50;;;;;;;0.20;0.10;;;;;;;;;;4918767;29;20044;-84
2022/10/09 10:58:35;;;;;;;0.20;0.10;;;;;;;;;;4922214;23;20048;-84
2022/10/09 11:01:36;;;;;;;0.20;0.10;;;;;;;;;;4910652;29;20054;-85
2022/10/09 11:04:12;;;;;;;0.20;0.10;;;;;;;;;;4887754;29;20071;-84
2022/10/09 11:06:48;;;;;;;0.20;0.10;;;;;;;;;;4913098;29;20146;-85
2022/10/09 11:09:14;;;;;;;0.20;0.10;;;;;;;;;;4895071;29;20103;-86
2022/10/09 11:11:46;;;;;;;0.20;0.10;;;;;;;;;;4883363;29;20910;-82
2022/10/09 11:14:29;;;;;;;0.20;0.10;;;;;;;;;;4920333;29;20048;-85
2022/10/09 11:17:00;;;;;;;0.20;0.10;;;;;;;;;;4895661;29;20388;-86
2022/10/09 11:19:45;;;;;;;0.20;0.10;;;;;;;;;;4917830;29;20139;-85
2022/10/09 11:22:20;;;;;;;0.20;0.10;;;;;;;;;;4913526;29;20546;-84
2022/10/09 11:24:52;;;;;;;0.20;0.10;;;;;;;;;;4887423;29;20143;-84
2022/10/09 11:27:33;;;;;;;0.20;0.10;;;;;;;;;;4879948;29;20041;-84
2022/10/09 11:30:04;;;;;;;0.20;0.10;;;;;;;;;;4898049;29;20131;-85
2022/10/09 11:32:34;;;;;;;0.20;0.10;;;;;;;;;;4908911;29;20037;-83
2022/10/09 11:35:06;;;;;;;0.20;0.10;;;;;;;;;;4882006;29;20055;-84
2022/10/09 11:37:42;;;;;;;0.20;0.10;;;;;;;;;;4877897;29;20140;-85
2022/10/09 11:40:11;;;;;;;0.20;0.10;;;;;;;;;;4912841;29;20084;-87
2022/10/09 11:42:44;;;;;;;0.20;0.10;;;;;;;;;;4909082;29;20491;-86
2022/10/09 11:45:28;;;;;;;0.20;0.10;;;;;;;;;;4899630;29;20095;-85
2022/10/09 11:47:59;;;;;;;0.20;0.10;;;;;;;;;;4900545;29;20044;-86
2022/10/09 11:50:25;;;;;;;0.20;0.10;;;;;;;;;;4862205;29;20083;-86
2022/10/09 11:52:57;;;;;;;0.20;0.10;;;;;;;;;;4857606;29;20041;-84
2022/10/09 11:55:25;;;;;;;0.20;0.10;;;;;;;;;;4894563;29;20044;-84
2022/10/09 11:57:51;;;;;;;0.20;0.20;;;;;;;;;;4874360;29;20054;-83
2022/10/09 12:00:28;;;;;;;0.20;0.10;;;;;;;;;;4871672;29;21900;-85
2022/10/09 12:03:01;;;;;;;0.20;0.10;;;;;;;;;;4898258;29;20060;-84
2022/10/09 12:05:44;;;;;;;0.20;0.10;;;;;;;;;;4885711;29;20048;-86
2022/10/09 12:08:10;;;;;;;;;;;;;;;;;;4874988;29;20573;-84
2022/10/09 12:10:39;;;;;;;0.20;0.10;;;;;;;;;;4898330;29;19919;-83
2022/10/09 12:13:07;;;;;;;0.20;0.10;;;;;;;;;;4869380;29;20041;-83
2022/10/09 12:15:44;;;;;;;0.20;0.10;;;;;;;;;;4890507;29;20041;-84
2022/10/09 12:18:15;;;;;;;0.20;0.10;;;;;;;;;;4858886;29;20052;-83
2022/10/09 12:20:44;;;;;;;0.20;0.10;;;;;;;;;;4873466;29;20456;-83
2022/10/09 12:23:10;;;;;;;0.20;0.10;;;;;;;;;;4874115;29;20100;-83
2022/10/09 12:25:44;;;;;;;0.20;0.10;;;;;;;;;;4891661;29;20048;-85
2022/10/09 12:28:20;;;;;;;0.20;0.10;;;;;;;;;;4878747;29;20140;-85
2022/10/09 12:30:47;;;;;;;0.20;0.10;;;;;;;;;;4904504;29;20036;-85
2022/10/09 12:33:20;;;;;;;0.20;0.10;;;;;;;;;;4899295;29;20056;-84
2022/10/09 12:35:47;;;;;;;0.20;0.10;;;;;;;;;;4875285;29;20075;-81
2022/10/09 12:38:17;;;;;;;0.20;0.10;;;;;;;;;;4870078;29;21178;-83
2022/10/09 12:40:47;;;;;;;0.20;0.10;;;;;;;;;;4868979;29;20046;-83
2022/10/09 12:43:15;;;;;;;0.20;0.10;;;;;;;;;;4873595;29;20259;-86
2022/10/09 12:45:42;;;;;;;0.20;0.10;;;;;;;;;;4860732;29;20188;-82
2022/10/09 12:48:13;;;;;;;0.20;0.10;;;;;;;;;;4866684;29;21680;-89
2022/10/09 12:50:39;;;;;;;0.20;0.10;;;;;;;;;;4885624;29;20104;-84
2022/10/09 12:53:09;;;;;;;0.20;0.10;;;;;;;;;;4875503;29;20048;-82
2022/10/09 12:55:43;;;;;;;0.20;0.10;;;;;;;;;;4880260;29;20088;-87
2022/10/09 12:58:20;;;;;;;0.20;0.10;;;;;;;;;;4876693;29;20256;-85
2022/10/09 13:00:48;;;;;;;0.20;0.10;;;;;;;;;;4878576;29;20155;-84
2022/10/09 13:03:35;;;;;;;0.20;0.10;;;;;;;;;;4880929;29;20045;-85
2022/10/09 13:06:02;;;;;;;0.20;0.10;;;;;;;;;;4914352;29;20076;-85
2022/10/09 13:08:33;;;;;;;0.20;0.10;;;;;;;;;;4877998;29;20262;-85
2022/10/09 13:11:20;;;;;;;0.20;0.10;;;;;;;;;;4907090;29;20064;-84
2022/10/09 13:13:50;;;;;;;0.20;0.10;;;;;;;;;;4874439;29;21152;-84
2022/10/09 13:16:16;;;;;;;0.20;0.10;;;;;;;;;;4872780;29;20096;-82
2022/10/09 13:18:42;;;;;;;0.20;0.10;;;;;;;;;;4886763;29;20086;-86
2022/10/09 13:21:23;;;;;;;0.20;0.10;;;;;;;;;;4866270;29;20744;-85
2022/10/09 13:23:49;;;;;;;0.20;0.10;;;;;;;;;;4873720;29;20052;-85
2022/10/09 13:26:26;;;;;;;0.20;0.10;;;;;;;;;;4853052;29;20723;-84
2022/10/09 13:28:52;;;;;;;0.20;0.10;;;;;;;;;;4902131;29;20041;-84
2022/10/09 13:31:18;;;;;;;0.20;0.10;;;;;;;;;;4860511;29;20511;-83
2022/10/09 13:33:44;;;;;;;0.20;0.10;;;;;;;;;;4904874;29;20040;-82
2022/10/09 13:36:20;;;;;;;0.20;0.10;;;;;;;;;;4872599;29;20048;-82
2022/10/09 13:38:47;;;;;;;0.20;0.10;;;;;;;;;;4878263;29;20491;-83
2022/10/09 13:41:15;;;;;;;0.20;0.10;;;;;;;;;;4877182;29;20179;-83
2022/10/09 13:43:41;;;;;;;0.20;0.10;;;;;;;;;;4862917;29;20033;-85
2022/10/09 13:46:07;;;;;;;0.20;0.10;;;;;;;;;;4878153;29;20415;-83
2022/10/09 13:48:34;;;;;;;0.20;0.10;;;;;;;;;;4880680;29;20049;-83
2022/10/09 13:51:00;;;;;;;0.20;0.10;;;;;;;;;;4902451;29;21031;-83
2022/10/09 13:53:26;;;;;;;0.20;0.10;;;;;;;;;;4905235;29;20202;-83
2022/10/09 13:55:53;;;;;;;0.20;0.10;;;;;;;;;;4893366;29;20047;-85
2022/10/09 13:58:19;;;;;;;0.20;0.10;;;;;;;;;;4871628;29;21706;-83
2022/10/09 14:00:46;;;;;;;0.20;0.10;;;;;;;;;;4910440;29;20045;-83
2022/10/09 14:03:17;;;;;;;0.20;0.10;;;;;;;;;;4916418;29;20795;-87
2022/10/09 14:05:44;;;;;;;0.20;0.10;;;;;;;;;;4882934;29;20044;-85
2022/10/09 14:08:20;;;;;;;0.20;0.10;;;;;;;;;;4877020;29;20630;-86
2022/10/09 14:10:46;;;;;;;0.20;0.10;;;;;;;;;;4886043;29;20044;-84
2022/10/09 14:13:13;;;;;;;0.20;0.10;;;;;;;;;;4917321;29;20047;-82
2022/10/09 14:15:40;;;;;;;0.20;0.10;;;;;;;;;;4903921;29;20040;-86
2022/10/09 14:18:15;;;;;;;0.20;0.10;;;;;;;;;;4910772;29;20052;-86
2022/10/09 14:20:41;;;;;;;0.20;0.10;;;;;;;;;;4883534;29;20096;-84
2022/10/09 14:23:08;;;;;;;0.20;0.10;;;;;;;;;;4882359;29;20040;-85
2022/10/09 14:25:34;;;;;;;0.20;0.10;;;;;;;;;;4886881;29;20127;-81
2022/10/09 14:28:01;;;;;;;0.20;0.10;;;;;;;;;;4908417;29;20076;-84
2022/10/09 14:30:27;;;;;;;0.20;0.10;;;;;;;;;;4885468;29;20045;-82
2022/10/09 14:32:54;;;;;;;0.20;0.10;;;;;;;;;;4884689;29;20049;-85
2022/10/09 14:35:20;;;;;;;0.20;0.10;;;;;;;;;;4887360;29;20044;-84
2022/10/09 14:37:46;;;;;;;0.20;0.10;;;;;;;;;;4902118;29;20056;-83
2022/10/09 14:40:12;;;;;;;0.20;0.10;;;;;;;;;;4889256;29;20044;-87
2022/10/09 14:42:38;;;;;;;0.20;0.10;;;;;;;;;;4900192;29;20100;-84
2022/10/09 14:45:05;;;;;;;0.20;0.10;;;;;;;;;;4888571;29;20531;-84
2022/10/09 14:47:31;;;;;;;0.20;0.10;;;;;;;;;;4885042;29;20036;-85
2022/10/09 14:49:57;;;;;;;0.20;0.10;;;;;;;;;;4884416;29;20045;-84
2022/10/09 14:52:23;;;;;;;0.20;0.10;;;;;;;;;;4879757;29;20043;-82
2022/10/09 14:54:49;;;;;;;0.20;0.10;;;;;;;;;;4887434;29;20036;-85
2022/10/09 14:57:15;;;;;;;0.20;0.10;;;;;;;;;;4882557;29;20059;-85
2022/10/09 14:59:41;;;;;;;0.20;0.10;;;;;;;;;;4915732;29;20042;-84
2022/10/09 15:02:09;;;;;;;0.20;0.10;;;;;;;;;;4899708;29;20041;-85
2022/10/09 15:04:38;;;;;;;0.20;0.10;;;;;;;;;;4883410;29;20041;-86
2022/10/09 15:07:04;;;;;;;0.20;0.10;;;;;;;;;;4885518;29;20040;-84
2022/10/09 15:09:30;;;;;;;0.20;0.10;;;;;;;;;;4900975;29;20044;-82